Terminal Aerodrome Forecast
Issued by NWS Shreveport, LA

Home | Current Version | Previous Version | Text Only | Print | Product List | Glossary On
Versions: 1 2 3 4 5 6 7 8 9 10 11 12 13 14 15 16 17 18 19 20 21 22 23
000
FTUS44 KSHV 050500
TAFSHV
TAF
KSHV 050524Z 0506/0606 01015G25KT P6SM -RA OVC010
      TEMPO 0506/0507 2SM TSRA BR SCT010 OVC020CB
     FM050700 01015G25KT 4SM -RAPL OVC015
      TEMPO 0509/0511 2SM PL OVC008
     FM051100 01015G25KT 5SM -FZRA BR OVC005
     FM051400 02012G18KT P6SM BKN025
     FM052200 02007KT P6SM SKC=

USA.gov is the U.S. government's official web portal to all federal, state and local government web resources and services.